Google Maps JavaScript API Example
Pilot Flight Report # 93463 Submitted by : AST003 on 2019-12-02
Date: 2019-12-02Aircraft: Boeing 787-3 Dreamliner
Flight No.: Not AvailableDistance (Nm): 761.70
Departure: DIAP - Felix Houphouet-BoignyDestination: FGSL - Malabo
 TimeFuelWeightSpeeds  
Out (Taxi)0609Z38815 lbs262118 lbs Flight RulesIFR
Off (Takeoff)0610Z 261862 lbs159 ktsFlight LevelFL329
On (Landing)0807Z 239475 lbs118 ktsVSTD-680 ft/min
In (Ramp)0808Z16125 lbs239430 lbs ZFW223301 lbs
Flight2.00  -  1:5722382 lbs  Pax0
Block1.98  -  1:5922690 lbs  Cargo0
Departure Weather280719Z 00000KT 0SM SKC 0/0 A2981
Destination WeatherFGSL 280808Z 27307KT 56SM SCT013 FEW021 31/23 A2979
Flight Comments